createdAt,value
2022-12-02T00:10:21.188Z,98700
2022-12-02T00:22:21.198Z,98690
2022-12-02T00:34:21.298Z,98670
2022-12-02T00:46:21.292Z,98660
2022-12-02T00:58:21.308Z,98660
2022-12-02T01:10:21.194Z,98650
2022-12-02T01:22:21.286Z,98650
2022-12-02T01:34:21.203Z,98650
2022-12-02T01:46:21.258Z,98660
2022-12-02T01:58:21.197Z,98660
2022-12-02T02:10:21.186Z,98660
2022-12-02T02:22:21.220Z,98650
2022-12-02T02:34:21.194Z,98630
2022-12-02T02:46:21.369Z,98630
2022-12-02T02:58:21.665Z,98620
2022-12-02T03:10:21.196Z,98610
2022-12-02T03:22:21.204Z,98610
2022-12-02T03:34:21.195Z,98600
2022-12-02T03:46:21.356Z,98590
2022-12-02T03:58:21.196Z,98580
2022-12-02T04:10:21.186Z,98570
2022-12-02T04:22:21.244Z,98550
2022-12-02T04:34:21.204Z,98540
2022-12-02T04:46:21.340Z,98530
2022-12-02T04:58:21.196Z,98530
2022-12-02T05:10:21.263Z,98510
2022-12-02T05:22:21.239Z,98520
2022-12-02T05:34:21.204Z,98510
2022-12-02T05:46:21.265Z,98500
2022-12-02T05:58:21.198Z,98500
2022-12-02T06:10:21.202Z,98510
2022-12-02T06:22:21.226Z,98510
2022-12-02T06:34:21.197Z,98500
2022-12-02T06:46:21.290Z,98500
2022-12-02T06:58:21.195Z,98500
2022-12-02T07:10:21.286Z,98500
2022-12-02T07:22:21.244Z,98490
2022-12-02T07:34:21.201Z,98490
2022-12-02T07:46:21.261Z,98490
2022-12-02T07:58:21.194Z,98480
2022-12-02T08:10:21.274Z,98490
2022-12-02T08:22:21.229Z,98480
2022-12-02T08:34:21.191Z,98480
2022-12-02T08:46:21.212Z,98470
2022-12-02T08:58:21.196Z,98480
2022-12-02T09:10:21.254Z,98480
2022-12-02T09:22:21.193Z,98480
2022-12-02T09:34:21.204Z,98490
2022-12-02T09:46:24.541Z,98470
2022-12-02T09:58:21.191Z,98470
2022-12-02T10:10:21.188Z,98480
2022-12-02T10:22:21.336Z,98460
2022-12-02T10:34:21.203Z,98470
2022-12-02T10:46:21.275Z,98450
2022-12-02T10:58:21.241Z,98450
2022-12-02T11:10:21.198Z,98430
2022-12-02T11:22:21.965Z,98430
2022-12-02T11:34:21.216Z,98410
2022-12-02T11:46:21.228Z,98410
2022-12-02T11:58:21.277Z,98400
2022-12-02T12:10:21.201Z,98380
2022-12-02T12:22:21.306Z,98380
2022-12-02T12:34:21.195Z,98370
2022-12-02T12:46:21.317Z,98340
2022-12-02T12:58:21.196Z,98340
2022-12-02T13:10:21.395Z,98340
2022-12-02T13:22:21.330Z,98330
2022-12-02T13:34:21.200Z,98330
2022-12-02T13:46:21.385Z,98330
2022-12-02T13:58:21.248Z,98340
2022-12-02T14:10:21.215Z,98340
2022-12-02T14:22:21.191Z,98330
2022-12-02T14:34:21.851Z,98350
2022-12-02T14:46:21.262Z,98350
2022-12-02T14:58:21.201Z,98350
2022-12-02T15:10:21.187Z,98360
2022-12-02T15:22:21.236Z,98360
2022-12-02T15:34:21.203Z,98360
2022-12-02T15:46:21.244Z,98390
2022-12-02T15:58:21.196Z,98380
2022-12-02T16:10:21.194Z,98400
2022-12-02T16:22:21.193Z,98390
2022-12-02T16:34:21.271Z,98390
2022-12-02T16:46:21.385Z,98400
2022-12-02T16:58:21.276Z,98390
2022-12-02T17:10:21.196Z,98380
2022-12-02T17:22:21.199Z,98400
2022-12-02T17:34:21.203Z,98400
2022-12-02T17:46:21.389Z,98410
2022-12-02T17:58:21.267Z,98400
2022-12-02T18:10:21.189Z,98400
2022-12-02T18:22:21.199Z,98400
2022-12-02T18:34:21.248Z,98400
2022-12-02T18:46:21.366Z,98400
2022-12-02T18:58:21.194Z,98390
2022-12-02T19:10:21.286Z,98390
2022-12-02T19:22:21.202Z,98390
2022-12-02T19:34:21.219Z,98380
2022-12-02T19:46:21.286Z,98370
2022-12-02T19:58:21.348Z,98380
2022-12-02T20:10:21.245Z,98380
2022-12-02T20:22:21.196Z,98370
2022-12-02T20:34:21.248Z,98380
2022-12-02T20:46:21.275Z,98380
2022-12-02T20:58:21.259Z,98380
2022-12-02T21:10:21.278Z,98380
2022-12-02T21:22:21.224Z,98390
2022-12-02T21:34:21.259Z,98380
2022-12-02T21:46:21.272Z,98380
2022-12-02T21:58:21.193Z,98380
2022-12-02T22:10:21.280Z,98400
2022-12-02T22:22:21.213Z,98390
2022-12-02T22:34:21.250Z,98390
2022-12-02T22:46:21.285Z,98390
2022-12-02T22:58:21.200Z,98390
2022-12-02T23:10:21.242Z,98380
2022-12-02T23:22:21.279Z,98380
2022-12-02T23:34:21.193Z,98380
2022-12-02T23:46:21.315Z,98390
2022-12-02T23:58:21.242Z,98380
